Starners Station, Pennsylvania
Current Conditions -  °F | °C
As of 10:53 PM on Wednesday 22 Oct 2014 (Local Time) from KTHV Reporting Station
Overcast Overcast  
Wind Chill: 52°   Ceiling: 2900
Heat Index: 52°   Visibility: 10mi
Dew Point: 43°   Wind: 13mph
Humidity: 71%   Direction: 320°NW
Pressure: 29.94"   Gusts: 20mph
Location:  40.0362°N, 77.1908°W
Report Text: KTHV 230253Z AUTO 32011G17KT 10SM BKN029 OVC050 11/06 A2994 RMK AO2 SLP142 60000 T01110061 58004
Loading
Personal Weather Stations






























Interactive Weather Map
Tropical Storm Tracking
New forecast layout! Learn more

10-Day Weather Forecast

Advertisements
Track Severe Weather on mobile